Time;durP1;ratioP1;P1;durP2;ratioP2;P2;SDS_P1;SDS_P2;PMS_P1;PMS_P2;Temp;Humidity;BMP_temperature;BMP_pressure;BME280_temperature;BME280_humidity;BME280_pressure;Samples;Min_cycle;Max_cycle;Signal;HPM_P1;HPM_P2
2021/10/26 00:01:41;;;;;;;4.87;2.43;;;10.90;99.90;;;;;;6233076;22;20252;-90
2021/10/26 00:04:08;;;;;;;5.07;2.90;;;10.90;99.90;;;;;;6232350;23;20748;-89
2021/10/26 00:06:34;;;;;;;3.37;2.40;;;11.00;99.90;;;;;;6234152;22;20209;-90
2021/10/26 00:09:00;;;;;;;6.13;2.40;;;10.90;99.90;;;;;;6232635;22;20197;-89
2021/10/26 00:11:26;;;;;;;4.13;3.07;;;10.90;99.90;;;;;;6246693;22;20212;-90
2021/10/26 00:13:52;;;;;;;6.27;3.07;;;10.90;99.90;;;;;;6215021;22;20322;-90
2021/10/26 00:16:18;;;;;;;13.00;4.67;;;10.80;99.90;;;;;;6267891;22;20161;-90
2021/10/26 00:18:44;;;;;;;8.30;4.77;;;10.80;99.90;;;;;;6240521;22;20500;-89
2021/10/26 00:21:11;;;;;;;7.33;5.03;;;10.80;99.90;;;;;;6240637;22;20207;-89
2021/10/26 00:23:36;;;;;;;6.27;4.03;;;10.70;99.90;;;;;;6240565;22;20566;-90
2021/10/26 00:26:04;;;;;;;10.10;5.00;;;10.70;99.90;;;;;;6240713;22;20658;-89
2021/10/26 00:28:34;;;;;;;7.33;4.73;;;10.60;99.90;;;;;;6215224;22;20157;-87
2021/10/26 00:31:00;;;;;;;8.37;5.43;;;10.60;99.90;;;;;;6214570;22;20197;-89
2021/10/26 00:33:27;;;;;;;7.60;5.73;;;10.60;99.90;;;;;;6266462;22;20205;-89
2021/10/26 00:35:53;;;;;;;10.13;6.63;;;10.60;99.90;;;;;;6266452;22;20658;-89
2021/10/26 00:38:19;;;;;;;7.77;5.50;;;10.60;99.90;;;;;;6215560;22;20196;-88
2021/10/26 00:40:46;;;;;;;12.63;6.00;;;10.60;99.90;;;;;;6240092;22;20180;-88
2021/10/26 00:43:12;;;;;;;13.03;7.67;;;10.60;99.90;;;;;;6241442;22;20185;-89
2021/10/26 00:45:38;;;;;;;9.97;5.30;;;10.60;99.90;;;;;;6240014;22;20749;-89
2021/10/26 00:48:04;;;;;;;11.57;6.97;;;10.60;99.90;;;;;;6215289;22;20212;-88
2021/10/26 00:50:30;;;;;;;13.63;6.17;;;10.60;99.90;;;;;;6267203;22;20188;-89
2021/10/26 00:52:56;;;;;;;13.70;8.03;;;10.60;99.90;;;;;;6266415;22;20197;-88
2021/10/26 00:55:22;;;;;;;11.27;7.53;;;10.60;99.90;;;;;;6241662;22;20915;-89
2021/10/26 00:57:48;;;;;;;15.97;8.43;;;10.60;99.90;;;;;;6239745;22;20296;-89
2021/10/26 01:00:16;;;;;;;12.87;7.63;;;10.60;99.90;;;;;;6214994;22;20504;-89
2021/10/26 01:02:46;;;;;;;9.77;5.90;;;10.60;99.90;;;;;;6266703;22;20262;-89
2021/10/26 01:05:13;;;;;;;8.63;7.27;;;10.50;99.90;;;;;;6266918;22;20189;-89
2021/10/26 01:07:40;;;;;;;13.90;7.67;;;10.60;99.90;;;;;;6267492;22;20191;-90
2021/10/26 01:10:07;;;;;;;12.67;6.87;;;10.50;99.90;;;;;;6242549;22;20641;-89
2021/10/26 01:12:34;;;;;;;9.33;5.70;;;10.50;99.90;;;;;;6241764;22;20208;-88
2021/10/26 01:15:00;;;;;;;17.90;6.57;;;10.50;99.90;;;;;;6241651;22;20201;-89
2021/10/26 01:17:26;;;;;;;13.83;7.90;;;10.60;99.90;;;;;;6241852;22;20188;-90
2021/10/26 01:19:55;;;;;;;13.67;7.07;;;10.60;99.90;;;;;;6241488;22;20157;-86
2021/10/26 01:22:24;;;;;;;12.70;8.23;;;10.50;99.90;;;;;;6242710;22;20157;-89
2021/10/26 01:24:50;;;;;;;10.07;7.83;;;10.50;99.90;;;;;;6242181;22;20192;-88
2021/10/26 01:27:17;;;;;;;16.77;8.90;;;10.50;99.90;;;;;;6268182;22;20217;-89
2021/10/26 01:29:43;;;;;;;13.23;8.27;;;10.50;99.90;;;;;;6242053;22;20196;-89
2021/10/26 01:32:11;;;;;;;15.37;7.37;;;10.50;99.90;;;;;;6241504;22;20977;-89
2021/10/26 01:34:37;;;;;;;14.70;9.00;;;10.50;99.90;;;;;;6241650;22;20156;-89
2021/10/26 01:37:06;;;;;;;12.60;7.50;;;10.40;99.90;;;;;;6216763;22;20577;-89
2021/10/26 01:39:33;;;;;;;14.60;8.57;;;10.40;99.90;;;;;;6241472;22;20204;-88
2021/10/26 01:41:59;;;;;;;13.93;8.33;;;10.40;99.90;;;;;;6216388;22;20192;-87
2021/10/26 01:44:26;;;;;;;14.43;9.10;;;10.40;99.90;;;;;;6241825;22;20188;-89
2021/10/26 01:46:52;;;;;;;18.23;7.67;;;10.40;99.90;;;;;;6241373;22;20192;-89
2021/10/26 01:49:20;;;;;;;15.97;10.03;;;10.40;99.90;;;;;;6216513;22;20192;-88
2021/10/26 01:51:47;;;;;;;13.67;8.77;;;10.40;99.90;;;;;;6268071;22;20196;-89
2021/10/26 01:54:13;;;;;;;15.27;10.83;;;10.30;99.90;;;;;;6212321;22;20203;-89
2021/10/26 01:56:40;;;;;;;18.23;10.53;;;10.30;99.90;;;;;;6212531;22;20211;-89
2021/10/26 01:59:06;;;;;;;19.70;9.50;;;10.30;99.90;;;;;;6238513;22;20322;-89
2021/10/26 02:01:32;;;;;;;16.67;9.27;;;10.30;99.90;;;;;;6192183;22;20193;-89
2021/10/26 02:03:58;;;;;;;18.20;10.30;;;10.30;99.90;;;;;;6241684;22;20977;-88
2021/10/26 02:06:23;;;;;;;16.33;8.83;;;10.30;99.90;;;;;;6216482;22;20204;-89
2021/10/26 02:08:49;;;;;;;17.77;11.17;;;10.30;99.90;;;;;;6216570;22;20230;-88
2021/10/26 02:11:15;;;;;;;19.83;9.60;;;10.30;99.90;;;;;;6216175;22;20722;-89
2021/10/26 02:13:40;;;;;;;23.20;10.37;;;10.30;99.90;;;;;;6268887;22;20160;-87
2021/10/26 02:16:06;;;;;;;19.07;9.63;;;10.30;99.90;;;;;;6192326;22;20608;-89
2021/10/26 02:18:32;;;;;;;17.37;10.47;;;10.20;99.90;;;;;;6216148;22;20223;-88
2021/10/26 02:20:59;;;;;;;18.40;10.87;;;10.20;99.90;;;;;;6216402;22;20292;-88
2021/10/26 02:23:25;;;;;;;12.43;9.90;;;10.20;99.90;;;;;;6241835;22;20189;-89
2021/10/26 02:25:50;;;;;;;20.50;10.43;;;10.20;99.90;;;;;;6241036;22;20199;-89
2021/10/26 02:28:17;;;;;;;13.37;9.13;;;10.20;99.90;;;;;;6217275;22;20169;-88
2021/10/26 02:30:43;;;;;;;16.07;9.47;;;10.10;99.90;;;;;;6241907;22;20275;-88
2021/10/26 02:33:11;;;;;;;13.50;9.10;;;10.10;99.90;;;;;;6241889;22;20223;-87
2021/10/26 02:35:37;;;;;;;13.20;9.00;;;10.10;99.90;;;;;;6242039;22;20202;-88
2021/10/26 02:38:03;;;;;;;15.13;10.10;;;10.10;99.90;;;;;;6268670;22;20188;-89
2021/10/26 02:40:29;;;;;;;16.47;9.57;;;10.10;99.90;;;;;;6217650;22;20156;-89
2021/10/26 02:42:55;;;;;;;20.00;9.17;;;10.00;99.90;;;;;;6216506;22;20204;-87
2021/10/26 02:45:25;;;;;;;15.87;10.33;;;10.00;99.90;;;;;;6268995;22;20195;-90
2021/10/26 02:47:51;;;;;;;15.73;9.93;;;10.00;99.90;;;;;;6243059;22;20235;-88
2021/10/26 02:50:19;;;;;;;16.07;10.33;;;9.90;99.90;;;;;;6242195;22;20192;-90
2021/10/26 02:52:46;;;;;;;17.40;9.20;;;9.90;99.90;;;;;;6193093;22;20183;-90
2021/10/26 02:55:12;;;;;;;21.73;10.10;;;9.80;99.90;;;;;;6242384;22;20153;-90
2021/10/26 02:57:38;;;;;;;15.50;9.23;;;9.80;99.90;;;;;;6191766;22;20207;-88
2021/10/26 03:00:06;;;;;;;13.07;8.37;;;9.70;99.90;;;;;;6240312;22;20200;-89
2021/10/26 03:02:32;;;;;;;16.90;9.63;;;9.70;99.90;;;;;;6266401;22;20232;-89
2021/10/26 03:04:58;;;;;;;16.10;9.23;;;9.70;99.90;;;;;;6239209;22;20212;-90
2021/10/26 03:07:23;;;;;;;16.33;8.30;;;9.70;99.90;;;;;;6216810;22;20193;-89
2021/10/26 03:09:49;;;;;;;14.87;5.97;;;9.70;99.90;;;;;;6241713;22;20227;-90
2021/10/26 03:12:16;;;;;;;15.57;10.40;;;9.60;99.90;;;;;;6214569;22;20635;-90
2021/10/26 03:14:41;;;;;;;19.93;9.37;;;9.60;99.90;;;;;;6266869;22;20440;-90
2021/10/26 03:17:07;;;;;;;10.70;7.63;;;9.60;99.90;;;;;;6214835;22;20280;-90
2021/10/26 03:19:33;;;;;;;15.20;9.80;;;9.60;99.90;;;;;;6266548;22;20988;-90
2021/10/26 03:21:59;;;;;;;14.07;7.57;;;9.50;99.90;;;;;;6239916;22;20201;-90
2021/10/26 03:24:24;;;;;;;14.43;8.97;;;9.50;99.90;;;;;;6189668;22;20193;-90
2021/10/26 03:26:50;;;;;;;8.80;6.77;;;9.50;99.90;;;;;;6215129;22;20212;-90
2021/10/26 03:29:16;;;;;;;7.13;4.50;;;9.50;99.90;;;;;;6214234;22;20206;-90
2021/10/26 03:31:42;;;;;;;13.90;8.47;;;9.50;99.90;;;;;;6215032;22;20153;-90
2021/10/26 03:34:08;;;;;;;8.70;6.73;;;9.50;99.90;;;;;;6215809;22;20153;-91
2021/10/26 03:36:34;;;;;;;12.30;7.77;;;9.50;99.90;;;;;;6189690;22;20201;-87
2021/10/26 03:39:00;;;;;;;12.47;7.87;;;9.40;99.90;;;;;;6240414;22;20637;-89
2021/10/26 03:41:26;;;;;;;10.90;7.93;;;9.30;99.90;;;;;;6240000;22;20193;-90
2021/10/26 03:43:53;;;;;;;14.23;8.20;;;9.30;99.90;;;;;;6215310;22;20165;-89
2021/10/26 03:46:19;;;;;;;15.77;8.17;;;9.40;99.90;;;;;;6216681;22;20189;-90
2021/10/26 03:48:45;;;;;;;12.33;7.47;;;9.30;99.90;;;;;;6242044;22;20533;-90
2021/10/26 03:51:11;;;;;;;11.30;7.47;;;9.30;99.90;;;;;;6240915;22;20215;-89
2021/10/26 03:53:37;;;;;;;12.57;6.80;;;9.30;99.90;;;;;;6241967;22;20203;-91
2021/10/26 03:56:03;;;;;;;13.17;6.83;;;9.30;99.90;;;;;;6242088;22;20266;-90
2021/10/26 03:58:32;;;;;;;9.80;6.70;;;9.30;99.90;;;;;;6241609;22;20165;-89
2021/10/26 04:00:58;;;;;;;12.50;7.20;;;9.20;99.90;;;;;;6239382;22;20188;-89
2021/10/26 04:03:24;;;;;;;20.30;6.70;;;9.20;99.90;;;;;;6265818;22;20671;-90
2021/10/26 04:06:02;;;;;;;18.17;7.63;;;9.20;99.90;;;;;;6213567;22;20313;-89
2021/10/26 04:08:44;;;;;;;6.90;6.13;;;9.20;99.90;;;;;;6218601;22;20199;-88
2021/10/26 04:11:14;;;;;;;10.70;7.03;;;9.20;99.90;;;;;;6202954;22;1444617;-90
2021/10/26 04:13:40;;;;;;;13.87;6.93;;;9.20;99.90;;;;;;6268014;22;20153;-90
2021/10/26 04:16:06;;;;;;;11.37;7.10;;;9.20;99.90;;;;;;6213697;22;20174;-90
2021/10/26 04:18:31;;;;;;;9.23;5.83;;;9.20;99.90;;;;;;6213025;22;20291;-90
2021/10/26 04:20:57;;;;;;;14.47;6.13;;;9.20;99.90;;;;;;6212159;22;20595;-89
2021/10/26 04:23:23;;;;;;;9.53;6.10;;;9.20;99.90;;;;;;6212595;22;20184;-89
2021/10/26 04:25:49;;;;;;;7.30;5.47;;;9.20;99.90;;;;;;6187703;22;20272;-90
2021/10/26 04:28:15;;;;;;;12.00;7.60;;;9.20;99.90;;;;;;6264392;22;20161;-88
2021/10/26 04:30:42;;;;;;;9.73;8.07;;;9.30;99.90;;;;;;6213109;22;20215;-90
2021/10/26 04:33:08;;;;;;;8.60;5.93;;;9.30;99.90;;;;;;6212065;22;20203;-89
2021/10/26 04:35:34;;;;;;;10.07;7.93;;;9.30;99.90;;;;;;6237201;22;20192;-89
2021/10/26 04:38:02;;;;;;;14.23;7.77;;;9.30;99.90;;;;;;6237079;22;20192;-90
2021/10/26 04:40:27;;;;;;;13.43;8.13;;;9.30;99.90;;;;;;6238620;22;20157;-89
2021/10/26 04:42:53;;;;;;;13.23;6.57;;;9.30;99.90;;;;;;6214512;22;20192;-89
2021/10/26 04:45:22;;;;;;;19.93;10.87;;;9.30;99.90;;;;;;6241158;22;20219;-91
2021/10/26 04:47:49;;;;;;;13.30;9.73;;;9.30;99.90;;;;;;6268089;22;20210;-89
2021/10/26 04:50:15;;;;;;;12.63;7.97;;;9.40;99.90;;;;;;6240664;22;20246;-89
2021/10/26 04:52:40;;;;;;;9.47;5.87;;;9.40;99.90;;;;;;6242420;22;20161;-90
2021/10/26 04:55:07;;;;;;;8.83;7.00;;;9.50;99.90;;;;;;6242066;22;20204;-90
2021/10/26 04:57:33;;;;;;;10.53;7.37;;;9.50;99.90;;;;;;6241338;22;20196;-87
2021/10/26 04:59:59;;;;;;;16.90;7.63;;;9.50;99.90;;;;;;6217391;22;20192;-91
2021/10/26 05:02:25;;;;;;;11.57;7.07;;;9.60;99.90;;;;;;6217098;22;20291;-90
2021/10/26 05:04:50;;;;;;;12.77;8.30;;;9.60;99.90;;;;;;6217688;22;20600;-89
2021/10/26 05:07:17;;;;;;;12.97;8.63;;;9.50;99.90;;;;;;6244291;22;20703;-90
2021/10/26 05:09:43;;;;;;;11.47;8.13;;;9.50;99.90;;;;;;6214986;22;20196;-89
2021/10/26 05:12:09;;;;;;;13.40;8.37;;;9.50;99.90;;;;;;6264373;22;20223;-89
2021/10/26 05:14:35;;;;;;;10.67;7.13;;;9.40;99.90;;;;;;6237802;22;20215;-89
2021/10/26 05:17:04;;;;;;;12.97;8.30;;;9.40;99.90;;;;;;6265432;22;20196;-90
2021/10/26 05:19:32;;;;;;;11.53;7.30;;;9.40;99.90;;;;;;6210539;22;20168;-90
2021/10/26 05:21:57;;;;;;;14.30;6.83;;;9.40;99.90;;;;;;6239670;22;20208;-91
2021/10/26 05:24:30;;;;;;;13.20;7.63;;;9.40;99.90;;;;;;6237407;22;20204;-92
2021/10/26 05:26:56;;;;;;;13.20;9.23;;;9.30;99.90;;;;;;6240386;22;20275;-92
2021/10/26 05:29:22;;;;;;;13.53;7.30;;;9.40;99.90;;;;;;6240578;22;20667;-90
2021/10/26 05:31:48;;;;;;;12.10;8.20;;;9.30;99.90;;;;;;6214227;22;20552;-89
2021/10/26 05:34:14;;;;;;;19.33;9.33;;;9.30;99.90;;;;;;6266457;22;20156;-91
2021/10/26 05:36:40;;;;;;;8.13;7.30;;;9.20;99.90;;;;;;6240134;22;20201;-89
2021/10/26 05:39:09;;;;;;;17.93;9.40;;;9.20;99.90;;;;;;6211756;22;20192;-90
2021/10/26 05:41:35;;;;;;;10.80;4.97;;;9.20;99.90;;;;;;6238930;22;20184;-93
2021/10/26 05:44:03;;;;;;;14.37;6.37;;;9.20;99.90;;;;;;6265887;22;20188;-93
2021/10/26 05:46:29;;;;;;;15.00;7.27;;;9.30;99.90;;;;;;6266700;22;20242;-90
2021/10/26 05:48:55;;;;;;;15.23;10.00;;;9.40;99.90;;;;;;6268625;22;20291;-90
2021/10/26 05:51:20;;;;;;;14.17;6.83;;;9.40;99.90;;;;;;6216932;22;20639;-91
2021/10/26 05:53:46;;;;;;;15.17;8.53;;;9.40;99.90;;;;;;6242406;22;20203;-91
2021/10/26 05:56:12;;;;;;;11.73;7.13;;;9.30;99.90;;;;;;6268485;22;20656;-91
2021/10/26 05:58:37;;;;;;;13.77;7.07;;;9.30;99.90;;;;;;6242353;22;20153;-94
2021/10/26 06:01:03;;;;;;;10.87;7.23;;;9.30;99.90;;;;;;6241327;22;20464;-93
2021/10/26 06:03:31;;;;;;;7.03;5.17;;;9.30;99.90;;;;;;6241712;22;20774;-90
2021/10/26 06:05:57;;;;;;;10.50;6.70;;;9.20;99.90;;;;;;6241729;22;20307;-93
2021/10/26 06:08:23;;;;;;;24.93;7.10;;;9.20;99.90;;;;;;6191251;22;21099;-91
2021/10/26 06:10:56;;;;;;;8.47;6.13;;;9.20;99.90;;;;;;6215446;22;20165;-90
2021/10/26 06:13:28;;;;;;;9.27;6.93;;;9.20;99.90;;;;;;6242045;22;20152;-88
2021/10/26 06:15:54;;;;;;;5.83;4.80;;;9.30;99.90;;;;;;6242263;22;20279;-89
2021/10/26 06:18:20;;;;;;;10.60;6.13;;;9.20;99.90;;;;;;6265992;22;20623;-88
2021/10/26 06:20:46;;;;;;;8.03;6.43;;;9.20;99.90;;;;;;6214585;22;20188;-88
2021/10/26 06:23:12;;;;;;;9.57;6.93;;;9.30;99.90;;;;;;6216808;22;20188;-89
2021/10/26 06:25:38;;;;;;;11.60;6.87;;;9.30;99.90;;;;;;6229525;22;20141;-89
2021/10/26 06:28:04;;;;;;;7.73;6.00;;;9.30;99.90;;;;;;6282137;22;20157;-93
2021/10/26 06:30:30;;;;;;;7.67;5.83;;;9.40;99.90;;;;;;6239266;22;20192;-93
2021/10/26 06:32:56;;;;;;;12.63;6.07;;;9.40;99.90;;;;;;6239193;22;20200;-92
2021/10/26 06:35:22;;;;;;;13.83;7.33;;;9.40;99.90;;;;;;6239146;22;20199;-91
2021/10/26 06:37:48;;;;;;;12.83;7.93;;;9.50;99.90;;;;;;6239492;22;20168;-92
2021/10/26 06:40:15;;;;;;;12.07;7.07;;;9.50;99.90;;;;;;6214247;22;20612;-90
2021/10/26 06:42:41;;;;;;;12.77;6.57;;;9.50;99.90;;;;;;6240918;22;20296;-90
2021/10/26 06:45:08;;;;;;;9.17;3.27;;;9.70;99.90;;;;;;6216304;22;20621;-92
2021/10/26 06:47:34;;;;;;;12.13;6.13;;;9.80;99.90;;;;;;6241209;22;20243;-91
2021/10/26 06:50:01;;;;;;;9.17;5.20;;;9.80;99.90;;;;;;6216178;22;20273;-90
2021/10/26 06:52:26;;;;;;;9.53;6.07;;;9.90;99.90;;;;;;6242672;22;20335;-91
2021/10/26 06:54:53;;;;;;;9.23;6.40;;;10.10;99.90;;;;;;6240839;22;20654;-88
2021/10/26 06:57:20;;;;;;;15.60;7.30;;;10.20;99.90;;;;;;6191349;22;20247;-89
2021/10/26 06:59:47;;;;;;;14.07;7.60;;;10.60;99.90;;;;;;6216993;22;20200;-89
2021/10/26 07:02:12;;;;;;;11.83;7.47;;;11.00;99.90;;;;;;6241985;22;20199;-89
2021/10/26 07:04:38;;;;;;;15.67;8.40;;;11.10;99.90;;;;;;6240866;22;20165;-89
2021/10/26 07:07:04;;;;;;;13.63;8.10;;;11.00;99.90;;;;;;6214193;22;20660;-91
2021/10/26 07:09:30;;;;;;;21.17;8.50;;;11.20;99.90;;;;;;6264998;22;20192;-90
2021/10/26 07:11:55;;;;;;;8.50;5.47;;;11.30;99.90;;;;;;6265405;22;20219;-89
2021/10/26 07:14:21;;;;;;;28.30;8.23;;;11.10;99.90;;;;;;6198719;22;20238;-91
2021/10/26 07:16:47;;;;;;;19.03;9.17;;;11.20;99.90;;;;;;6239647;22;20193;-91
2021/10/26 07:19:13;;;;;;;19.60;7.27;;;11.20;99.90;;;;;;6241456;22;20161;-88
2021/10/26 07:21:39;;;;;;;14.07;7.23;;;11.10;99.90;;;;;;6240795;22;20196;-90
2021/10/26 07:24:05;;;;;;;11.73;7.87;;;10.90;99.90;;;;;;6240954;22;20196;-88
2021/10/26 07:26:34;;;;;;;8.73;5.63;;;10.90;99.90;;;;;;6215742;22;20200;-90
2021/10/26 07:29:00;;;;;;;13.17;6.47;;;10.90;99.90;;;;;;6215552;22;20192;-88
2021/10/26 07:31:26;;;;;;;9.93;5.93;;;10.80;99.90;;;;;;6212674;22;20492;-91
2021/10/26 07:33:56;;;;;;;9.03;6.07;;;10.80;99.90;;;;;;6241572;22;20275;-92
2021/10/26 07:36:25;;;;;;;11.47;6.10;;;10.80;99.90;;;;;;6216296;22;20707;-92
2021/10/26 07:38:58;;;;;;;15.87;6.37;;;10.70;99.90;;;;;;6192399;22;20331;-90
2021/10/26 07:41:23;;;;;;;10.37;6.67;;;10.80;99.90;;;;;;6216358;22;20193;-90
2021/10/26 07:43:50;;;;;;;9.57;5.63;;;11.00;99.90;;;;;;6215446;22;20241;-87
2021/10/26 07:46:15;;;;;;;11.73;7.73;;;11.20;99.90;;;;;;6268956;22;20184;-87
2021/10/26 07:48:41;;;;;;;18.10;8.50;;;11.60;99.90;;;;;;6240072;22;20873;-87
2021/10/26 07:51:07;;;;;;;11.43;6.20;;;12.70;99.90;;;;;;6215550;22;20686;-89
2021/10/26 07:53:33;;;;;;;15.13;8.97;;;13.30;99.90;;;;;;6240208;22;20606;-89
2021/10/26 07:56:02;;;;;;;32.47;10.43;;;14.40;99.90;;;;;;6215682;22;20258;-88
2021/10/26 07:58:28;;;;;;;27.63;12.03;;;15.50;99.90;;;;;;6240332;22;20157;-89
2021/10/26 08:00:54;;;;;;;21.30;10.03;;;16.40;99.90;;;;;;6267265;22;20235;-90
2021/10/26 08:03:21;;;;;;;23.77;10.80;;;17.00;99.90;;;;;;6214491;22;20208;-89
2021/10/26 08:05:48;;;;;;;17.13;9.00;;;17.90;99.90;;;;;;6240334;22;20539;-89
2021/10/26 08:08:17;;;;;;;16.80;6.87;;;17.70;99.90;;;;;;6239042;22;20635;-87
2021/10/26 08:10:43;;;;;;;9.07;5.40;;;18.30;99.90;;;;;;6190935;22;20156;-89
2021/10/26 08:13:09;;;;;;;10.33;5.63;;;18.80;99.90;;;;;;6241351;22;20157;-88
2021/10/26 08:15:35;;;;;;;9.73;4.67;;;18.80;99.90;;;;;;6214767;22;20654;-89
2021/10/26 08:18:02;;;;;;;11.00;4.33;;;18.10;99.90;;;;;;6266624;22;20216;-89
2021/10/26 08:20:28;;;;;;;3.97;2.63;;;17.00;99.90;;;;;;6239126;22;20192;-90
2021/10/26 08:22:54;;;;;;;7.50;3.50;;;16.20;99.90;;;;;;6239848;22;20522;-90
2021/10/26 08:25:24;;;;;;;6.93;3.20;;;15.40;99.90;;;;;;6240712;22;20243;-89
2021/10/26 08:27:52;;;;;;;10.23;4.50;;;14.80;99.90;;;;;;6215407;22;20270;-89
2021/10/26 08:35:42;;;;;;;4.70;3.97;;;13.50;99.90;;;;;;6245447;22;20192;-90
2021/10/26 08:38:08;;;;;;;9.70;3.07;;;13.50;99.90;;;;;;6267302;22;20192;-88
2021/10/26 08:40:37;;;;;;;6.00;3.57;;;13.50;99.90;;;;;;6215728;22;20239;-90
2021/10/26 08:43:06;;;;;;;8.23;3.50;;;13.40;99.90;;;;;;6242684;22;20185;-90
2021/10/26 08:45:34;;;;;;;5.47;3.10;;;13.40;99.90;;;;;;6243938;22;20231;-89
2021/10/26 08:48:02;;;;;;;4.80;3.53;;;13.40;99.90;;;;;;6259048;22;20414;-89
2021/10/26 08:50:34;;;;;;;8.37;4.03;;;13.20;99.90;;;;;;6196850;22;20239;-90
2021/10/26 08:53:00;;;;;;;11.50;3.70;;;13.20;99.90;;;;;;6240060;22;20192;-90
2021/10/26 08:55:26;;;;;;;4.80;3.70;;;13.10;99.90;;;;;;6240812;22;20175;-89
2021/10/26 08:57:52;;;;;;;7.73;2.70;;;13.10;99.90;;;;;;6240196;22;20199;-88
2021/10/26 09:00:18;;;;;;;6.33;4.07;;;13.10;99.90;;;;;;6240206;22;20189;-90
2021/10/26 09:02:47;;;;;;;8.23;5.10;;;13.20;99.90;;;;;;6215208;22;20279;-89
2021/10/26 09:05:24;;;;;;;3.23;2.57;;;13.20;99.90;;;;;;6239360;22;20223;-89
2021/10/26 09:08:07;;;;;;;8.87;4.20;;;13.50;99.90;;;;;;6241411;22;20176;-92
2021/10/26 09:10:35;;;;;;;4.03;3.20;;;13.60;99.90;;;;;;6266888;22;20141;-88
2021/10/26 09:18:50;;;;;;;6.83;3.20;;;13.70;99.90;;;;;;6266944;22;20196;-91
2021/10/26 09:21:27;;;;;;;7.33;2.87;;;13.70;99.90;;;;;;6240473;22;20267;-92
2021/10/26 09:23:56;;;;;;;20.47;4.60;;;13.70;99.90;;;;;;6239843;22;20211;-92
2021/10/26 09:26:25;;;;;;;14.40;3.43;;;13.60;99.90;;;;;;6240973;22;20213;-91
2021/10/26 09:28:56;;;;;;;17.53;8.63;;;13.60;99.90;;;;;;6241628;22;20425;-91
2021/10/26 09:31:29;;;;;;;15.87;7.33;;;13.60;99.90;;;;;;6241908;22;20145;-91
2021/10/26 09:34:11;;;;;;;18.57;10.23;;;13.80;99.90;;;;;;6216252;22;20239;-90
2021/10/26 09:36:45;;;;;;;16.77;9.57;;;14.00;99.90;;;;;;6240952;22;20271;-90
2021/10/26 09:39:15;;;;;;;7.67;3.87;;;14.10;99.90;;;;;;6216305;22;20196;-89
2021/10/26 09:41:56;;;;;;;12.43;4.27;;;14.30;99.90;;;;;;6267515;22;20203;-89
2021/10/26 09:44:27;;;;;;;6.23;2.90;;;14.20;99.90;;;;;;6267737;22;20196;-90
2021/10/26 09:47:03;;;;;;;6.77;2.97;;;14.20;99.90;;;;;;6240471;22;20185;-90
2021/10/26 09:49:33;;;;;;;4.93;2.93;;;14.20;99.90;;;;;;6268505;22;20184;-89
2021/10/26 09:52:33;;;;;;;4.87;3.53;;;14.20;99.90;;;;;;6241510;22;20200;-89
2021/10/26 09:55:21;;;;;;;7.33;2.80;;;14.10;99.90;;;;;;6213070;22;20201;-88
2021/10/26 09:58:01;;;;;;;6.77;4.57;;;13.90;99.90;;;;;;6268186;22;20588;-89
2021/10/26 10:00:37;;;;;;;8.17;4.07;;;13.80;99.90;;;;;;6241077;22;20231;-88
2021/10/26 10:03:12;;;;;;;2.67;2.00;;;13.80;99.90;;;;;;6242112;22;20271;-88
2021/10/26 10:06:02;;;;;;;13.83;7.33;;;13.70;99.90;;;;;;6216333;22;20219;-88
2021/10/26 10:08:29;;;;;;;8.13;7.13;;;13.90;99.90;;;;;;6194939;22;20196;-88
2021/10/26 10:11:13;;;;;;;9.13;4.27;;;13.80;99.90;;;;;;6240977;22;20189;-89
2021/10/26 10:13:47;;;;;;;8.40;3.23;;;13.90;99.90;;;;;;6266977;22;20195;-88
2021/10/26 10:16:17;;;;;;;12.10;5.20;;;14.00;99.90;;;;;;6241162;22;20703;-88
2021/10/26 10:18:51;;;;;;;10.27;4.63;;;14.10;99.90;;;;;;6241243;22;20203;-86
2021/10/26 10:21:29;;;;;;;9.27;4.87;;;14.20;99.90;;;;;;6267599;22;20224;-88
2021/10/26 10:23:58;;;;;;;6.07;3.20;;;14.20;99.90;;;;;;6240941;22;20654;-88
2021/10/26 10:26:26;;;;;;;15.83;6.03;;;14.20;99.90;;;;;;6240066;22;20231;-88
2021/10/26 10:28:55;;;;;;;10.73;4.93;;;14.00;99.90;;;;;;6239399;22;20160;-87
2021/10/26 10:31:25;;;;;;;9.73;5.60;;;13.90;99.90;;;;;;6267883;22;20161;-89
2021/10/26 10:33:54;;;;;;;17.00;7.13;;;13.90;99.90;;;;;;6266509;22;20658;-87
2021/10/26 10:36:22;;;;;;;10.60;5.47;;;13.80;99.90;;;;;;6215601;22;20189;-85
2021/10/26 10:38:48;;;;;;;11.67;6.03;;;13.80;99.90;;;;;;6240414;22;20303;-87
2021/10/26 10:41:27;;;;;;;15.93;6.00;;;13.70;99.90;;;;;;6214905;22;20743;-88
2021/10/26 10:44:09;;;;;;;12.83;7.37;;;13.70;99.90;;;;;;6240576;22;20152;-86
2021/10/26 10:46:42;;;;;;;9.07;5.20;;;13.80;99.90;;;;;;6267601;22;20177;-89
2021/10/26 10:49:23;;;;;;;21.00;7.43;;;14.10;99.90;;;;;;6244229;22;20184;-90
2021/10/26 10:52:10;;;;;;;11.13;7.33;;;14.40;99.90;;;;;;6272876;22;20496;-89
2021/10/26 10:54:36;;;;;;;15.80;6.93;;;14.70;99.90;;;;;;6244360;22;20220;-88
2021/10/26 10:57:33;;;;;;;8.60;4.67;;;14.90;99.90;;;;;;6246892;22;20196;-88
2021/10/26 11:00:24;;;;;;;7.63;4.53;;;15.20;99.90;;;;;;6245867;22;20201;-88
2021/10/26 11:02:51;;;;;;;9.33;4.73;;;15.00;99.90;;;;;;6245156;22;20204;-90
2021/10/26 11:05:33;;;;;;;10.87;4.73;;;15.00;99.90;;;;;;6216747;22;20188;-89
2021/10/26 11:08:04;;;;;;;10.17;4.67;;;15.00;99.90;;;;;;6268227;22;20664;-90
2021/10/26 11:10:48;;;;;;;14.47;5.07;;;15.10;99.90;;;;;;6243071;22;20227;-91
2021/10/26 11:13:35;;;;;;;7.87;3.90;;;15.20;99.90;;;;;;6270170;22;20326;-89
2021/10/26 11:16:05;;;;;;;8.77;4.43;;;15.40;99.90;;;;;;6233615;22;20509;-95
2021/10/26 11:18:50;;;;;;;4.67;3.17;;;15.90;99.90;;;;;;6247706;22;20714;-88
2021/10/26 11:21:22;;;;;;;7.07;3.57;;;15.90;99.90;;;;;;6240664;22;20635;-91
2021/10/26 11:23:50;;;;;;;14.27;4.37;;;15.50;99.90;;;;;;6240524;22;20258;-92
2021/10/26 11:26:19;;;;;;;11.83;4.13;;;15.40;99.90;;;;;;6238878;22;20237;-89
2021/10/26 11:28:51;;;;;;;7.43;4.07;;;15.30;99.90;;;;;;6238346;22;20804;-92
2021/10/26 11:31:23;;;;;;;7.90;4.83;;;15.20;99.90;;;;;;6239783;22;20164;-90
2021/10/26 11:33:54;;;;;;;9.93;3.63;;;15.20;99.90;;;;;;6267450;22;20196;-89
2021/10/26 11:36:21;;;;;;;10.40;3.67;;;15.00;99.90;;;;;;6215133;22;20204;-88
2021/10/26 11:38:51;;;;;;;9.70;3.63;;;15.10;99.90;;;;;;6239974;22;20201;-90
2021/10/26 11:41:29;;;;;;;4.60;3.77;;;15.10;99.90;;;;;;6240411;22;20200;-89
2021/10/26 11:43:57;;;;;;;6.20;3.93;;;15.20;99.90;;;;;;6241067;22;20186;-90
2021/10/26 11:46:34;;;;;;;8.80;3.83;;;15.10;99.90;;;;;;6242301;22;20616;-88
2021/10/26 11:49:09;;;;;;;5.77;3.83;;;14.80;99.90;;;;;;6269289;22;20196;-89
2021/10/26 11:51:46;;;;;;;7.43;4.67;;;14.80;99.90;;;;;;6241085;22;20207;-88
2021/10/26 11:54:35;;;;;;;6.27;3.67;;;14.60;99.90;;;;;;6240295;22;20192;-90
2021/10/26 11:57:06;;;;;;;9.43;4.67;;;14.50;99.90;;;;;;6239999;22;20207;-85
2021/10/26 11:59:37;;;;;;;5.90;4.47;;;14.30;99.90;;;;;;6266545;22;20215;-85
2021/10/26 12:02:05;;;;;;;8.90;5.53;;;14.40;99.90;;;;;;6239532;22;20310;-86
2021/10/26 12:04:35;;;;;;;4.60;1.77;;;14.20;99.90;;;;;;6267503;22;20180;-88
2021/10/26 12:07:02;;;;;;;8.87;5.23;;;13.90;99.90;;;;;;6239748;22;20207;-91
2021/10/26 12:09:33;;;;;;;9.60;5.17;;;13.80;99.90;;;;;;6267794;22;20207;-91
2021/10/26 12:12:04;;;;;;;9.33;5.40;;;13.80;99.90;;;;;;6266190;22;20472;-88
2021/10/26 12:14:36;;;;;;;6.73;4.43;;;13.80;99.90;;;;;;6240619;22;20204;-88
2021/10/26 12:17:28;;;;;;;9.20;4.73;;;13.70;99.90;;;;;;6267115;22;20200;-89
2021/10/26 12:20:27;;;;;;;8.90;5.87;;;13.80;99.90;;;;;;6240249;22;20584;-88
2021/10/26 12:22:56;;;;;;;12.00;5.83;;;13.80;99.90;;;;;;6185332;22;20157;-91
2021/10/26 12:25:29;;;;;;;11.90;5.07;;;13.80;99.90;;;;;;6241716;22;20152;-88
2021/10/26 12:28:00;;;;;;;9.23;4.20;;;13.80;99.90;;;;;;6240594;22;20798;-91
2021/10/26 12:30:26;;;;;;;7.77;4.87;;;13.70;99.90;;;;;;6216065;22;20192;-93
2021/10/26 12:32:56;;;;;;;8.50;4.87;;;13.80;99.90;;;;;;6240553;22;20197;-90
2021/10/26 12:35:24;;;;;;;10.00;5.90;;;13.70;99.90;;;;;;6240668;22;20196;-88
2021/10/26 12:38:03;;;;;;;7.03;4.23;;;13.70;99.90;;;;;;6214341;22;20160;-89
2021/10/26 12:40:40;;;;;;;8.33;6.07;;;13.70;99.90;;;;;;6240718;22;20147;-89
2021/10/26 12:43:06;;;;;;;13.00;6.03;;;13.80;99.90;;;;;;6240264;22;20180;-91
2021/10/26 12:45:34;;;;;;;12.77;6.17;;;14.00;99.90;;;;;;6215348;22;20196;-89
2021/10/26 12:48:05;;;;;;;8.50;5.67;;;14.10;99.90;;;;;;6213894;22;20201;-88
2021/10/26 12:50:38;;;;;;;12.27;7.73;;;14.10;99.90;;;;;;6239643;22;21044;-89
2021/10/26 12:53:33;;;;;;;16.20;4.77;;;14.30;99.90;;;;;;6267045;22;20189;-89
2021/10/26 12:56:18;;;;;;;13.37;4.83;;;14.30;99.90;;;;;;6239646;22;20619;-90
2021/10/26 12:59:18;;;;;;;10.97;4.43;;;14.20;99.90;;;;;;6266417;22;20141;-90
2021/10/26 13:01:49;;;;;;;7.10;5.13;;;14.30;99.90;;;;;;6211694;22;20210;-91
2021/10/26 13:04:20;;;;;;;8.13;5.00;;;14.20;99.90;;;;;;6268715;22;20156;-90